createdAt,value
2022-07-29T00:01:03.685Z,20.63
2022-07-29T00:03:30.294Z,20.62
2022-07-29T00:05:56.842Z,20.49
2022-07-29T00:08:23.546Z,20.26
2022-07-29T00:10:50.995Z,20.23
2022-07-29T00:13:17.618Z,20.05
2022-07-29T00:15:44.257Z,19.97
2022-07-29T00:18:10.796Z,19.82
2022-07-29T00:20:37.243Z,19.59
2022-07-29T00:23:04.115Z,19.53
2022-07-29T00:25:30.683Z,19.45
2022-07-29T00:28:00.361Z,19.41
2022-07-29T00:30:27.471Z,19.28
2022-07-29T00:32:53.914Z,19.27
2022-07-29T00:35:38.860Z,19.26
2022-07-29T00:38:05.433Z,19.24
2022-07-29T00:40:31.868Z,19.17
2022-07-29T00:42:58.389Z,19.08
2022-07-29T00:45:26.359Z,19.07
2022-07-29T00:47:52.935Z,19.07
2022-07-29T00:50:19.608Z,19.03
2022-07-29T00:52:46.430Z,19.01
2022-07-29T00:55:16.908Z,19.02
2022-07-29T00:57:45.659Z,18.96
2022-07-29T01:00:19.669Z,19.01
2022-07-29T01:02:50.565Z,19.04
2022-07-29T01:05:22.278Z,19.00
2022-07-29T01:07:52.035Z,18.90
2022-07-29T01:10:20.355Z,18.87
2022-07-29T01:12:50.134Z,18.88
2022-07-29T01:15:16.963Z,18.86
2022-07-29T01:17:53.479Z,18.83
2022-07-29T01:20:59.294Z,18.84
2022-07-29T01:23:44.359Z,18.74
2022-07-29T01:26:22.703Z,18.68
2022-07-29T01:29:05.325Z,18.70
2022-07-29T01:31:58.720Z,18.70
2022-07-29T01:34:41.366Z,18.65
2022-07-29T01:37:12.250Z,18.61
2022-07-29T01:39:40.448Z,18.67
2022-07-29T01:42:16.318Z,18.59
2022-07-29T01:44:53.296Z,18.62
2022-07-29T01:47:24.349Z,18.65
2022-07-29T01:49:53.765Z,18.65
2022-07-29T01:52:26.793Z,18.55
2022-07-29T01:54:58.289Z,18.50
2022-07-29T01:57:31.876Z,18.51
2022-07-29T02:00:01.174Z,18.52
2022-07-29T02:02:31.119Z,18.36
2022-07-29T02:05:01.082Z,18.35
2022-07-29T02:07:30.490Z,18.41
2022-07-29T02:09:59.044Z,18.40
2022-07-29T02:12:26.731Z,18.28
2022-07-29T02:14:55.767Z,18.30
2022-07-29T02:17:25.895Z,18.33
2022-07-29T02:19:57.317Z,18.34
2022-07-29T02:22:25.435Z,18.06
2022-07-29T02:24:53.062Z,17.90
2022-07-29T02:27:23.850Z,17.88
2022-07-29T02:29:52.138Z,17.91
2022-07-29T02:32:20.309Z,18.10
2022-07-29T02:34:48.114Z,18.19
2022-07-29T02:37:16.888Z,18.10
2022-07-29T02:39:45.855Z,18.17
2022-07-29T02:42:16.036Z,18.22
2022-07-29T02:44:43.104Z,18.23
2022-07-29T02:47:20.287Z,18.22
2022-07-29T02:49:54.931Z,18.24
2022-07-29T02:52:31.106Z,18.35
2022-07-29T02:55:23.401Z,18.14
2022-07-29T02:58:00.573Z,17.95
2022-07-29T03:00:29.886Z,18.00
2022-07-29T03:03:00.369Z,18.03
2022-07-29T03:05:27.332Z,17.86
2022-07-29T03:07:57.919Z,17.94
2022-07-29T03:10:27.265Z,18.02
2022-07-29T03:12:56.216Z,17.96
2022-07-29T03:15:22.999Z,18.00
2022-07-29T03:17:53.332Z,17.98
2022-07-29T03:20:20.310Z,18.02
2022-07-29T03:22:50.035Z,18.09
2022-07-29T03:25:20.010Z,18.08
2022-07-29T03:27:47.664Z,18.09
2022-07-29T03:30:18.386Z,18.06
2022-07-29T03:32:49.859Z,18.07
2022-07-29T03:35:20.248Z,18.05
2022-07-29T03:37:47.337Z,18.08
2022-07-29T03:40:19.138Z,18.03
2022-07-29T03:42:47.671Z,18.06
2022-07-29T03:45:19.182Z,18.03
2022-07-29T03:47:57.055Z,18.00
2022-07-29T03:50:26.857Z,18.06
2022-07-29T03:52:53.549Z,18.03
2022-07-29T03:55:20.200Z,18.03
2022-07-29T03:57:48.432Z,17.98
2022-07-29T04:00:16.901Z,18.01
2022-07-29T04:02:49.651Z,17.94
2022-07-29T04:05:17.627Z,17.96
2022-07-29T04:07:48.653Z,17.95
2022-07-29T04:10:30.357Z,17.91
2022-07-29T04:12:59.609Z,17.91
2022-07-29T04:15:26.293Z,17.94
2022-07-29T04:17:57.781Z,17.98
2022-07-29T04:20:24.269Z,17.93
2022-07-29T04:22:50.788Z,17.89
2022-07-29T04:25:17.388Z,17.90
2022-07-29T04:28:01.162Z,17.85
2022-07-29T04:30:28.106Z,17.78
2022-07-29T04:32:54.698Z,17.80
2022-07-29T04:35:21.187Z,17.79
2022-07-29T04:37:48.082Z,17.85
2022-07-29T04:40:14.603Z,17.87
2022-07-29T04:42:46.384Z,17.93
2022-07-29T04:45:13.894Z,17.92
2022-07-29T04:47:40.958Z,17.94
2022-07-29T04:50:09.674Z,17.95
2022-07-29T04:52:36.295Z,17.98
2022-07-29T04:55:03.057Z,17.92
2022-07-29T04:57:29.645Z,17.84
2022-07-29T04:59:56.034Z,17.85
2022-07-29T05:02:22.966Z,17.91
2022-07-29T05:04:49.781Z,17.91
2022-07-29T05:07:16.322Z,17.96
2022-07-29T05:09:42.801Z,18.06
2022-07-29T05:12:09.878Z,18.20
2022-07-29T05:14:36.385Z,18.82
2022-07-29T05:17:02.907Z,19.66
2022-07-29T05:19:29.417Z,19.33
2022-07-29T05:21:55.834Z,20.43
2022-07-29T05:24:22.345Z,22.82
2022-07-29T05:26:48.744Z,24.69
2022-07-29T05:29:43.664Z,25.70
2022-07-29T05:32:01.821Z,25.79
2022-07-29T05:34:28.319Z,25.52
2022-07-29T05:36:54.937Z,24.94
2022-07-29T05:39:21.608Z,24.35
2022-07-29T05:41:51.889Z,23.92
2022-07-29T05:44:19.019Z,24.11
2022-07-29T05:46:45.871Z,24.13
2022-07-29T05:49:12.978Z,24.91
2022-07-29T05:51:53.555Z,26.56
2022-07-29T05:54:20.061Z,26.23
2022-07-29T05:56:46.697Z,26.96
2022-07-29T05:59:18.020Z,27.56
2022-07-29T06:01:44.933Z,27.66
2022-07-29T06:04:11.564Z,28.53
2022-07-29T06:06:38.119Z,28.68
2022-07-29T06:09:11.550Z,28.31
2022-07-29T06:11:39.181Z,28.06
2022-07-29T06:14:05.714Z,27.99
2022-07-29T06:16:32.289Z,29.38
2022-07-29T06:18:58.828Z,28.05
2022-07-29T06:21:25.354Z,28.48
2022-07-29T06:23:51.854Z,27.59
2022-07-29T06:26:18.310Z,27.40
2022-07-29T06:28:56.847Z,27.47
2022-07-29T06:31:23.337Z,27.27
2022-07-29T06:33:49.976Z,27.21
2022-07-29T06:36:16.531Z,27.82
2022-07-29T06:38:49.196Z,27.18
2022-07-29T06:41:18.255Z,28.22
2022-07-29T06:43:52.611Z,28.20
2022-07-29T06:46:23.149Z,28.16
2022-07-29T06:48:51.325Z,28.32
2022-07-29T06:51:22.131Z,28.07
2022-07-29T06:54:01.544Z,27.71
2022-07-29T06:56:39.420Z,27.85
2022-07-29T06:59:08.143Z,27.57
2022-07-29T07:01:34.972Z,26.59
2022-07-29T07:04:01.640Z,27.80
2022-07-29T07:06:28.445Z,28.04
2022-07-29T07:08:55.130Z,27.51
2022-07-29T07:11:21.694Z,27.37
2022-07-29T07:13:48.212Z,28.09
2022-07-29T07:16:14.910Z,27.32
2022-07-29T07:18:41.605Z,26.47
2022-07-29T07:21:08.154Z,27.56
2022-07-29T07:23:34.704Z,28.11
2022-07-29T07:26:01.223Z,27.85
2022-07-29T07:28:27.718Z,27.83
2022-07-29T07:30:54.248Z,27.83
2022-07-29T07:33:20.810Z,27.53
2022-07-29T07:35:47.709Z,27.52
2022-07-29T07:38:14.246Z,27.33
2022-07-29T07:40:41.818Z,26.49
2022-07-29T07:43:08.315Z,27.31
2022-07-29T07:45:35.052Z,26.22
2022-07-29T07:48:01.752Z,26.57
2022-07-29T07:50:28.336Z,26.86
2022-07-29T07:52:58.709Z,26.61
2022-07-29T07:55:26.521Z,26.23
2022-07-29T07:57:53.209Z,25.65
2022-07-29T08:00:20.055Z,26.13
2022-07-29T08:02:50.928Z,26.62
2022-07-29T08:05:18.106Z,26.74
2022-07-29T08:07:47.814Z,27.17
2022-07-29T08:10:36.783Z,27.32
2022-07-29T08:13:10.157Z,27.12
2022-07-29T08:15:36.794Z,26.78
2022-07-29T08:18:08.521Z,25.87
2022-07-29T08:20:36.848Z,26.22
2022-07-29T08:23:05.266Z,26.70
2022-07-29T08:25:31.777Z,26.97
2022-07-29T08:27:58.258Z,26.86
2022-07-29T08:30:24.837Z,26.70
2022-07-29T08:32:55.231Z,26.51
2022-07-29T08:35:24.554Z,26.95
2022-07-29T08:37:52.123Z,27.60
2022-07-29T08:40:19.224Z,27.66
2022-07-29T08:42:45.935Z,28.14
2022-07-29T08:45:12.999Z,28.26
2022-07-29T08:47:40.777Z,28.72
2022-07-29T08:50:10.730Z,28.27
2022-07-29T08:52:40.192Z,27.02
2022-07-29T08:55:08.597Z,27.47
2022-07-29T08:57:37.073Z,27.94
2022-07-29T09:00:11.774Z,28.45
2022-07-29T09:02:45.259Z,28.15
2022-07-29T09:05:13.657Z,28.21
2022-07-29T09:07:40.918Z,28.29
2022-07-29T09:10:07.934Z,28.67
2022-07-29T09:12:37.933Z,28.26
2022-07-29T09:15:05.131Z,29.00
2022-07-29T09:17:45.944Z,28.50
2022-07-29T09:20:15.733Z,27.98
2022-07-29T09:22:42.476Z,28.29
2022-07-29T09:25:09.595Z,28.71
2022-07-29T09:27:36.639Z,28.05
2022-07-29T09:30:08.742Z,28.05
2022-07-29T09:32:55.011Z,28.36
2022-07-29T09:35:24.363Z,28.41
2022-07-29T09:37:51.862Z,28.64
2022-07-29T09:40:20.809Z,29.08
2022-07-29T09:42:47.917Z,28.82
2022-07-29T09:45:35.809Z,29.29
2022-07-29T09:48:18.446Z,29.61
2022-07-29T09:50:47.368Z,29.57
2022-07-29T09:53:31.449Z,29.40
2022-07-29T09:55:58.134Z,28.43
2022-07-29T09:58:24.604Z,28.14
2022-07-29T10:00:52.897Z,28.60
2022-07-29T10:03:20.009Z,28.34
2022-07-29T10:05:47.458Z,28.51
2022-07-29T10:08:14.102Z,28.37
2022-07-29T10:10:43.913Z,28.30
2022-07-29T10:13:16.202Z,28.66
2022-07-29T10:15:46.723Z,28.35
2022-07-29T10:18:15.462Z,28.83
2022-07-29T10:20:42.322Z,28.77
2022-07-29T10:23:09.968Z,28.46
2022-07-29T10:25:36.472Z,28.83
2022-07-29T10:28:03.773Z,28.86
2022-07-29T10:30:30.459Z,29.14
2022-07-29T10:33:18.741Z,29.99
2022-07-29T10:36:00.267Z,29.63
2022-07-29T10:38:45.628Z,29.80
2022-07-29T10:41:43.606Z,28.70
2022-07-29T10:44:22.998Z,28.48
2022-07-29T10:46:51.585Z,28.43
2022-07-29T10:49:25.087Z,28.97
2022-07-29T10:52:02.432Z,29.03
2022-07-29T10:54:45.845Z,29.30
2022-07-29T10:58:01.361Z,30.20
2022-07-29T11:00:30.825Z,29.66
2022-07-29T11:02:59.423Z,30.23
2022-07-29T11:05:32.068Z,30.93
2022-07-29T11:08:20.359Z,31.62
2022-07-29T11:10:49.791Z,31.06
2022-07-29T11:13:44.155Z,30.96
2022-07-29T11:16:11.344Z,30.94
2022-07-29T11:19:13.780Z,31.83
2022-07-29T11:22:05.167Z,30.62
2022-07-29T11:24:32.941Z,31.61
2022-07-29T11:27:18.193Z,31.04
2022-07-29T11:29:53.966Z,30.92
2022-07-29T11:32:22.698Z,32.01
2022-07-29T11:35:17.313Z,32.70
2022-07-29T11:37:52.766Z,31.38
2022-07-29T11:40:24.537Z,31.80
2022-07-29T11:42:52.754Z,31.98
2022-07-29T11:45:42.876Z,32.23
2022-07-29T11:48:29.715Z,32.17
2022-07-29T11:50:59.937Z,31.66
2022-07-29T11:53:29.154Z,31.89
2022-07-29T11:56:00.431Z,32.12
2022-07-29T11:58:28.371Z,32.35
2022-07-29T12:00:56.223Z,31.76
2022-07-29T12:03:34.796Z,30.73
2022-07-29T12:06:04.529Z,30.41
2022-07-29T12:08:41.946Z,29.97
2022-07-29T12:11:17.340Z,29.89
2022-07-29T12:13:46.878Z,29.67
2022-07-29T12:16:15.987Z,28.74
2022-07-29T12:18:42.589Z,29.34
2022-07-29T12:21:09.307Z,28.99
2022-07-29T12:23:38.999Z,28.61
2022-07-29T12:26:07.573Z,28.77
2022-07-29T12:28:39.641Z,28.86
2022-07-29T12:31:06.565Z,28.49
2022-07-29T12:33:35.924Z,28.78
2022-07-29T12:36:07.524Z,28.65
2022-07-29T12:38:36.001Z,28.62
2022-07-29T12:41:04.365Z,28.10
2022-07-29T12:43:31.491Z,28.22
2022-07-29T12:45:58.405Z,28.25
2022-07-29T12:48:37.014Z,28.14
2022-07-29T12:51:05.442Z,27.71
2022-07-29T12:53:32.008Z,27.49
2022-07-29T12:56:07.925Z,27.78
2022-07-29T12:58:41.474Z,27.79
2022-07-29T13:01:17.310Z,27.74
2022-07-29T13:03:57.775Z,27.64
2022-07-29T13:06:41.347Z,27.60
2022-07-29T13:09:09.338Z,27.33
2022-07-29T13:11:43.012Z,27.21
2022-07-29T13:14:15.147Z,27.16
2022-07-29T13:17:04.263Z,27.36
2022-07-29T13:19:36.769Z,27.16
2022-07-29T13:22:03.594Z,27.09
2022-07-29T13:24:30.174Z,27.61
2022-07-29T13:26:56.686Z,27.69
2022-07-29T13:29:23.151Z,27.71
2022-07-29T13:31:50.007Z,27.40
2022-07-29T13:34:16.619Z,27.41
2022-07-29T13:36:43.102Z,27.45
2022-07-29T13:39:09.582Z,27.21
2022-07-29T13:41:36.056Z,27.39
2022-07-29T13:44:03.587Z,26.94
2022-07-29T13:46:30.108Z,26.96
2022-07-29T13:48:56.715Z,27.05
2022-07-29T13:51:23.912Z,26.78
2022-07-29T13:53:50.462Z,26.95
2022-07-29T13:56:16.933Z,26.73
2022-07-29T13:58:43.411Z,26.47
2022-07-29T14:01:09.981Z,26.69
2022-07-29T14:03:39.245Z,26.54
2022-07-29T14:06:06.725Z,26.40
2022-07-29T14:08:33.314Z,26.19
2022-07-29T14:10:59.821Z,26.08
2022-07-29T14:13:26.495Z,26.06
2022-07-29T14:15:53.779Z,25.96
2022-07-29T14:18:20.329Z,25.96
2022-07-29T14:20:46.815Z,25.95
2022-07-29T14:23:13.275Z,26.28
2022-07-29T14:25:42.780Z,26.28
2022-07-29T14:28:11.025Z,26.22
2022-07-29T14:30:38.073Z,25.72
2022-07-29T14:33:04.572Z,25.41
2022-07-29T14:35:31.089Z,25.90
2022-07-29T14:37:58.185Z,25.73
2022-07-29T14:40:24.750Z,25.69
2022-07-29T14:42:51.275Z,25.78
2022-07-29T14:45:17.909Z,25.85
2022-07-29T14:47:44.435Z,25.70
2022-07-29T14:50:11.387Z,25.70
2022-07-29T14:52:38.130Z,25.56
2022-07-29T14:55:05.110Z,25.23
2022-07-29T14:57:42.800Z,25.23
2022-07-29T15:00:10.643Z,25.20
2022-07-29T15:03:00.481Z,25.24
2022-07-29T15:05:23.707Z,25.34
2022-07-29T15:07:50.245Z,25.02
2022-07-29T15:10:16.748Z,25.28
2022-07-29T15:12:43.245Z,25.01
2022-07-29T15:15:10.060Z,24.69
2022-07-29T15:17:36.732Z,24.58
2022-07-29T15:27:00.114Z,24.52
2022-07-29T15:29:26.659Z,24.27
2022-07-29T15:31:53.241Z,24.29
2022-07-29T15:34:21.490Z,24.14
2022-07-29T15:36:52.806Z,24.17
2022-07-29T15:39:21.616Z,24.16
2022-07-29T15:41:48.139Z,24.00
2022-07-29T15:44:14.623Z,23.95
2022-07-29T15:47:00.442Z,23.74
2022-07-29T15:49:47.788Z,23.77
2022-07-29T15:52:24.747Z,23.59
2022-07-29T15:54:53.047Z,23.74
2022-07-29T15:57:19.547Z,23.70
2022-07-29T15:59:45.925Z,23.50
2022-07-29T16:02:12.429Z,23.52
2022-07-29T16:04:39.006Z,23.46
2022-07-29T16:07:05.600Z,23.56
2022-07-29T16:09:32.049Z,23.52
2022-07-29T16:11:58.436Z,23.62
2022-07-29T16:14:28.208Z,23.54
2022-07-29T16:16:55.416Z,23.68
2022-07-29T16:19:22.261Z,23.36
2022-07-29T16:21:48.618Z,23.12
2022-07-29T16:24:15.081Z,23.10
2022-07-29T16:26:41.546Z,23.05
2022-07-29T16:29:08.006Z,22.76
2022-07-29T16:31:34.458Z,22.70
2022-07-29T16:34:01.515Z,22.89
2022-07-29T16:36:28.173Z,22.62
2022-07-29T16:38:54.649Z,22.96
2022-07-29T16:41:21.157Z,22.93
2022-07-29T16:43:47.591Z,22.72
2022-07-29T16:46:18.856Z,22.81
2022-07-29T16:48:46.184Z,22.67
2022-07-29T16:51:14.432Z,22.62
2022-07-29T16:53:41.400Z,22.69
2022-07-29T16:56:11.194Z,22.56
2022-07-29T16:58:43.545Z,22.39
2022-07-29T17:01:11.293Z,22.33
2022-07-29T17:04:00.120Z,22.48
2022-07-29T17:06:28.705Z,22.34
2022-07-29T17:08:56.324Z,22.13
2022-07-29T17:11:22.772Z,22.26
2022-07-29T17:14:10.150Z,22.26
2022-07-29T17:16:36.701Z,22.26
2022-07-29T17:19:03.417Z,22.14
2022-07-29T17:21:29.888Z,22.03
2022-07-29T17:23:56.505Z,22.01
2022-07-29T17:26:23.043Z,21.86
2022-07-29T17:28:49.498Z,21.76
2022-07-29T17:31:16.237Z,21.75
2022-07-29T17:33:42.820Z,21.75
2022-07-29T17:36:24.567Z,21.51
2022-07-29T17:38:53.228Z,21.60
2022-07-29T17:41:20.771Z,21.56
2022-07-29T17:43:48.106Z,21.40
2022-07-29T17:46:14.728Z,21.58
2022-07-29T17:48:41.325Z,21.35
2022-07-29T17:51:08.201Z,21.28
2022-07-29T17:53:34.770Z,21.35
2022-07-29T17:56:01.337Z,21.24
2022-07-29T17:58:27.831Z,21.19
2022-07-29T18:00:54.372Z,20.99
2022-07-29T18:03:21.147Z,21.15
2022-07-29T18:05:47.662Z,21.11
2022-07-29T18:08:14.154Z,21.11
2022-07-29T18:10:41.290Z,21.00
2022-07-29T18:13:07.755Z,20.56
2022-07-29T18:15:34.115Z,20.70
2022-07-29T18:18:00.585Z,20.50
2022-07-29T18:20:27.876Z,20.33
2022-07-29T18:22:54.259Z,20.05
2022-07-29T18:25:20.824Z,20.35
2022-07-29T18:27:47.241Z,20.37
2022-07-29T18:30:15.185Z,20.29
2022-07-29T18:32:54.329Z,20.29
2022-07-29T18:35:26.314Z,20.33
2022-07-29T18:38:00.962Z,20.33
2022-07-29T18:40:29.655Z,20.25
2022-07-29T18:42:56.347Z,20.31
2022-07-29T18:45:22.803Z,20.18
2022-07-29T18:47:54.881Z,19.69
2022-07-29T18:50:29.008Z,19.94
2022-07-29T18:53:01.096Z,19.99
2022-07-29T18:55:27.572Z,19.92
2022-07-29T18:57:56.601Z,20.00
2022-07-29T19:00:24.899Z,19.98
2022-07-29T19:02:52.507Z,19.94
2022-07-29T19:05:19.215Z,20.12
2022-07-29T19:07:45.702Z,20.10
2022-07-29T19:10:12.533Z,20.12
2022-07-29T19:12:39.170Z,20.17
2022-07-29T19:15:05.864Z,20.15
2022-07-29T19:17:32.409Z,20.01
2022-07-29T19:19:58.859Z,20.09
2022-07-29T19:22:25.355Z,19.92
2022-07-29T19:24:51.923Z,19.93
2022-07-29T19:27:18.865Z,19.90
2022-07-29T19:29:45.794Z,19.67
2022-07-29T19:32:13.468Z,19.76
2022-07-29T19:35:10.433Z,19.67
2022-07-29T19:37:37.353Z,19.71
2022-07-29T19:40:04.876Z,19.72
2022-07-29T19:42:31.372Z,19.70
2022-07-29T19:44:57.825Z,19.59
2022-07-29T19:47:24.387Z,19.59
2022-07-29T19:49:50.772Z,19.60
2022-07-29T19:52:17.271Z,19.49
2022-07-29T19:54:43.764Z,19.38
2022-07-29T19:57:10.283Z,19.42
2022-07-29T19:59:37.220Z,19.25
2022-07-29T20:02:03.830Z,19.52
2022-07-29T20:04:30.500Z,19.18
2022-07-29T20:07:01.374Z,19.13
2022-07-29T20:09:28.363Z,19.15
2022-07-29T20:11:54.810Z,19.09
2022-07-29T20:14:21.598Z,19.17
2022-07-29T20:16:48.338Z,19.14
2022-07-29T20:19:15.027Z,19.23
2022-07-29T20:21:41.518Z,19.09
2022-07-29T20:24:08.641Z,19.11
2022-07-29T20:26:35.108Z,19.12
2022-07-29T20:29:05.022Z,18.90
2022-07-29T20:31:32.403Z,18.95
2022-07-29T20:34:00.100Z,19.04
2022-07-29T20:36:27.390Z,19.03
2022-07-29T20:38:54.922Z,18.96
2022-07-29T20:41:21.739Z,18.97
2022-07-29T20:43:51.321Z,18.96
2022-07-29T20:46:18.304Z,19.02
2022-07-29T20:48:46.847Z,18.97
2022-07-29T20:51:14.136Z,19.06
2022-07-29T20:53:41.520Z,19.02
2022-07-29T20:56:08.304Z,18.96
2022-07-29T20:58:36.295Z,18.71
2022-07-29T21:01:04.069Z,18.84
2022-07-29T21:03:30.597Z,18.65
2022-07-29T21:05:57.179Z,18.78
2022-07-29T21:08:23.698Z,18.77
2022-07-29T21:10:50.337Z,18.69
2022-07-29T21:13:17.011Z,18.82
2022-07-29T21:15:46.221Z,18.85
2022-07-29T21:18:30.220Z,18.74
2022-07-29T21:20:58.564Z,18.78
2022-07-29T21:23:26.344Z,18.77
2022-07-29T21:25:54.000Z,18.69
2022-07-29T21:28:26.459Z,18.65
2022-07-29T21:30:54.175Z,18.67
2022-07-29T21:33:20.712Z,18.53
2022-07-29T21:36:14.874Z,18.53
2022-07-29T21:38:34.226Z,18.52
2022-07-29T21:41:01.171Z,18.59
2022-07-29T21:43:28.820Z,18.46
2022-07-29T21:45:56.413Z,18.37
2022-07-29T21:48:23.816Z,18.38
2022-07-29T21:50:51.452Z,18.41
2022-07-29T21:53:20.815Z,18.41
2022-07-29T21:55:54.257Z,18.38
2022-07-29T21:58:22.835Z,18.30
2022-07-29T22:02:14.406Z,18.29
2022-07-29T22:04:40.871Z,18.23
2022-07-29T22:07:07.428Z,18.21
2022-07-29T22:09:33.957Z,18.19
2022-07-29T22:12:02.483Z,18.27
2022-07-29T22:14:29.018Z,18.26
2022-07-29T22:16:58.055Z,18.17
2022-07-29T22:19:27.311Z,18.16
2022-07-29T22:21:54.339Z,18.14
2022-07-29T22:24:20.950Z,18.18
2022-07-29T22:26:47.498Z,18.15
2022-07-29T22:29:17.532Z,18.16
2022-07-29T22:31:44.520Z,18.18
2022-07-29T22:34:13.312Z,18.13
2022-07-29T22:36:41.012Z,18.16
2022-07-29T22:39:07.572Z,18.08
2022-07-29T22:41:34.073Z,18.03
2022-07-29T22:44:00.610Z,18.01
2022-07-29T22:46:27.186Z,18.01
2022-07-29T22:48:53.882Z,17.97
2022-07-29T22:51:20.347Z,18.01
2022-07-29T22:53:47.016Z,18.05
2022-07-29T22:56:13.572Z,17.86
2022-07-29T22:58:40.217Z,17.82
2022-07-29T23:01:06.732Z,17.76
2022-07-29T23:03:33.828Z,17.77
2022-07-29T23:06:00.443Z,17.71
2022-07-29T23:08:26.879Z,17.72
2022-07-29T23:10:53.498Z,17.62
2022-07-29T23:13:19.925Z,17.67
2022-07-29T23:15:46.727Z,17.66
2022-07-29T23:18:13.469Z,17.66
2022-07-29T23:20:40.338Z,17.65
2022-07-29T23:23:06.992Z,17.62
2022-07-29T23:25:33.488Z,17.63
2022-07-29T23:28:00.384Z,17.57
2022-07-29T23:30:27.554Z,17.59
2022-07-29T23:32:54.759Z,17.46
2022-07-29T23:35:22.472Z,17.42
2022-07-29T23:37:49.172Z,17.43
2022-07-29T23:40:15.862Z,17.44
2022-07-29T23:42:43.205Z,17.41
2022-07-29T23:45:11.001Z,17.41
2022-07-29T23:47:37.775Z,17.41
2022-07-29T23:50:06.362Z,17.38
2022-07-29T23:52:32.897Z,17.36
2022-07-29T23:55:36.983Z,17.31
2022-07-29T23:57:46.122Z,17.27
